createdAt,value
2022-08-06T00:00:06.426Z,21.20
2022-08-06T00:05:06.549Z,21.24
2022-08-06T00:10:09.190Z,21.31
2022-08-06T00:15:14.466Z,21.35
2022-08-06T00:20:30.037Z,21.39
2022-08-06T00:25:35.573Z,21.49
2022-08-06T00:30:38.187Z,21.55
2022-08-06T00:35:40.230Z,21.53
2022-08-06T00:40:50.525Z,21.51
2022-08-06T00:46:00.673Z,21.46
2022-08-06T00:51:03.654Z,21.30
2022-08-06T00:56:08.939Z,21.14
2022-08-06T01:01:17.460Z,21.03
2022-08-06T01:06:53.928Z,20.95
2022-08-06T01:11:43.068Z,20.82
2022-08-06T01:16:48.995Z,20.74
2022-08-06T01:21:59.509Z,20.70
2022-08-06T01:27:23.046Z,20.64
2022-08-06T01:32:42.730Z,20.58
2022-08-06T01:38:00.873Z,20.54
2022-08-06T01:43:22.798Z,20.53
2022-08-06T01:48:28.596Z,20.50
2022-08-06T01:54:05.910Z,20.49
2022-08-06T01:58:58.880Z,20.42
2022-08-06T02:04:01.338Z,20.36
2022-08-06T02:09:22.823Z,20.29
2022-08-06T02:14:29.916Z,20.20
2022-08-06T02:19:48.076Z,20.15
2022-08-06T02:25:02.661Z,20.11
2022-08-06T02:30:07.192Z,20.09
2022-08-06T02:35:10.063Z,20.02
2022-08-06T02:40:20.604Z,19.86
2022-08-06T02:45:58.516Z,19.73
2022-08-06T02:51:29.601Z,19.60
2022-08-06T02:56:29.689Z,19.48
2022-08-06T03:01:43.534Z,19.36
2022-08-06T03:06:47.459Z,19.21
2022-08-06T03:11:51.108Z,19.05
2022-08-06T03:16:57.680Z,18.82
2022-08-06T03:22:01.158Z,18.60
2022-08-06T03:27:07.762Z,18.42
2022-08-06T03:32:36.103Z,18.30
2022-08-06T03:37:59.523Z,18.19
2022-08-06T03:42:56.673Z,18.06
2022-08-06T03:48:07.449Z,17.82
2022-08-06T03:53:28.834Z,17.65
2022-08-06T03:58:32.596Z,17.53
2022-08-06T04:03:39.905Z,17.44
2022-08-06T04:08:42.449Z,17.36
2022-08-06T04:14:07.643Z,17.29
2022-08-06T04:19:15.754Z,17.22
2022-08-06T04:24:18.148Z,17.17
2022-08-06T04:29:23.485Z,17.05
2022-08-06T04:34:28.532Z,16.74
2022-08-06T04:39:38.041Z,16.49
2022-08-06T04:44:56.010Z,16.22
2022-08-06T04:50:07.430Z,15.90
2022-08-06T04:55:24.216Z,15.54
2022-08-06T05:00:33.417Z,15.29
2022-08-06T05:05:40.486Z,15.19
2022-08-06T05:10:50.104Z,15.13
2022-08-06T05:15:56.166Z,15.13
2022-08-06T05:20:59.720Z,15.16
2022-08-06T05:26:02.236Z,15.19
2022-08-06T05:31:04.221Z,15.22
2022-08-06T05:36:11.936Z,15.24
2022-08-06T05:41:21.980Z,15.27
2022-08-06T05:46:25.720Z,15.31
2022-08-06T05:51:45.563Z,15.31
2022-08-06T05:56:53.695Z,15.34
2022-08-06T06:01:58.662Z,15.37
2022-08-06T06:07:08.801Z,15.37
2022-08-06T06:12:12.700Z,15.38
2022-08-06T06:17:38.953Z,15.39
2022-08-06T06:22:46.824Z,15.40
2022-08-06T06:28:12.642Z,15.44
2022-08-06T06:34:06.650Z,15.50
2022-08-06T06:39:25.901Z,15.57
2022-08-06T06:46:05.387Z,15.66
2022-08-06T06:50:31.041Z,15.74
2022-08-06T06:55:57.309Z,15.80
2022-08-06T07:01:11.709Z,15.85
2022-08-06T07:06:31.738Z,15.90
2022-08-06T07:12:02.327Z,15.90
2022-08-06T07:17:43.662Z,15.88
2022-08-06T07:22:26.289Z,15.92
2022-08-06T07:27:41.848Z,15.92
2022-08-06T07:32:49.409Z,15.93
2022-08-06T07:38:04.732Z,16.00
2022-08-06T07:43:23.878Z,16.06
2022-08-06T07:48:33.364Z,16.13
2022-08-06T07:53:52.492Z,16.25
2022-08-06T07:59:06.676Z,16.32
2022-08-06T08:04:34.276Z,16.36
2022-08-06T08:10:01.753Z,16.43
2022-08-06T08:15:19.185Z,16.48
2022-08-06T08:20:36.476Z,16.56
2022-08-06T08:25:50.735Z,16.67
2022-08-06T08:30:54.753Z,16.78
2022-08-06T08:36:00.726Z,16.95
2022-08-06T08:41:22.275Z,17.16
2022-08-06T08:46:31.117Z,17.31
2022-08-06T08:51:42.352Z,17.58
2022-08-06T08:57:09.689Z,17.80
2022-08-06T09:02:16.982Z,17.75
2022-08-06T09:07:25.817Z,17.80
2022-08-06T09:12:45.400Z,17.90
2022-08-06T09:18:26.198Z,17.89
2022-08-06T09:23:16.640Z,17.83
2022-08-06T09:28:41.238Z,17.95
2022-08-06T09:34:30.227Z,18.24
2022-08-06T09:39:59.932Z,18.90
2022-08-06T09:45:16.364Z,19.04
2022-08-06T09:50:37.236Z,19.15
2022-08-06T09:55:41.493Z,19.27
2022-08-06T10:00:50.883Z,19.30
2022-08-06T10:06:04.273Z,19.62
2022-08-06T10:11:07.711Z,19.60
2022-08-06T10:16:29.088Z,19.36
2022-08-06T10:21:41.121Z,19.79
2022-08-06T10:26:44.885Z,20.44
2022-08-06T10:31:52.917Z,20.61
2022-08-06T10:36:59.982Z,20.59
2022-08-06T10:42:16.378Z,20.80
2022-08-06T10:48:59.813Z,20.92
2022-08-06T10:52:49.635Z,20.69
2022-08-06T10:57:52.276Z,20.73
2022-08-06T11:03:18.388Z,20.50
2022-08-06T11:08:45.286Z,20.69
2022-08-06T11:14:18.970Z,20.79
2022-08-06T11:19:56.462Z,21.16
2022-08-06T11:25:00.094Z,21.09
2022-08-06T11:30:13.109Z,20.96
2022-08-06T11:35:49.132Z,20.86
2022-08-06T11:41:09.685Z,21.50
2022-08-06T11:46:35.638Z,21.47
2022-08-06T11:52:03.942Z,20.99
2022-08-06T11:57:11.797Z,21.47
2022-08-06T12:02:37.806Z,22.19
2022-08-06T12:07:48.618Z,21.94
2022-08-06T12:12:53.651Z,22.13
2022-08-06T12:18:19.038Z,22.47
2022-08-06T12:23:23.558Z,22.65
2022-08-06T12:28:51.048Z,22.27
2022-08-06T12:33:53.286Z,22.06
2022-08-06T12:38:59.696Z,22.31
2022-08-06T12:44:06.534Z,22.44
2022-08-06T12:49:10.316Z,22.45
2022-08-06T12:54:26.119Z,22.82
2022-08-06T12:59:29.172Z,22.84
2022-08-06T13:04:48.863Z,22.73
2022-08-06T13:10:16.922Z,22.83
2022-08-06T13:15:18.445Z,23.09
2022-08-06T13:20:41.986Z,22.76
2022-08-06T13:25:53.038Z,22.30
2022-08-06T13:30:57.747Z,22.70
2022-08-06T13:36:08.269Z,22.56
2022-08-06T13:41:37.280Z,22.10
2022-08-06T13:46:44.374Z,21.86
2022-08-06T13:51:55.455Z,22.25
2022-08-06T13:57:00.022Z,22.15
2022-08-06T14:02:03.841Z,22.26
2022-08-06T14:07:06.757Z,22.90
2022-08-06T14:12:13.128Z,23.03
2022-08-06T14:17:19.559Z,23.31
2022-08-06T14:22:26.212Z,23.28
2022-08-06T14:27:31.149Z,22.70
2022-08-06T14:32:45.907Z,22.37
2022-08-06T14:37:52.185Z,22.64
2022-08-06T14:43:17.289Z,22.80
2022-08-06T14:48:19.296Z,22.74
2022-08-06T14:53:22.340Z,22.47
2022-08-06T14:58:24.601Z,22.31
2022-08-06T15:03:33.927Z,22.43
2022-08-06T15:08:36.835Z,22.79
2022-08-06T15:13:51.431Z,23.00
2022-08-06T15:19:30.358Z,22.86
2022-08-06T15:24:18.463Z,22.63
2022-08-06T15:29:27.493Z,22.57
2022-08-06T15:34:37.876Z,22.41
2022-08-06T15:39:52.316Z,22.47
2022-08-06T15:44:58.025Z,22.49
2022-08-06T15:50:04.730Z,22.57
2022-08-06T15:55:14.981Z,22.71
2022-08-06T16:00:23.067Z,22.61
2022-08-06T16:05:32.606Z,22.46
2022-08-06T16:11:02.280Z,22.33
2022-08-06T16:16:16.679Z,22.27
2022-08-06T16:21:33.895Z,22.20
2022-08-06T16:26:41.937Z,22.27
2022-08-06T16:31:53.864Z,22.41
2022-08-06T16:36:59.960Z,22.26
2022-08-06T16:42:05.549Z,22.11
2022-08-06T16:47:08.275Z,22.16
2022-08-06T16:52:42.186Z,22.24
2022-08-06T16:57:39.651Z,22.64
2022-08-06T17:02:45.197Z,23.21
2022-08-06T17:07:53.898Z,23.50
2022-08-06T17:13:02.191Z,24.23
2022-08-06T17:18:05.982Z,24.49
2022-08-06T17:23:08.482Z,24.59
2022-08-06T17:28:14.138Z,24.72
2022-08-06T17:33:16.447Z,24.72
2022-08-06T17:38:19.209Z,24.40
2022-08-06T17:43:55.066Z,23.54
2022-08-06T17:48:46.097Z,22.74
2022-08-06T17:53:52.561Z,22.08
2022-08-06T17:59:10.904Z,21.51
2022-08-06T18:04:22.641Z,21.03
2022-08-06T18:10:11.114Z,20.51
2022-08-06T18:14:57.179Z,20.12
2022-08-06T18:20:01.828Z,19.77
2022-08-06T18:25:04.278Z,19.38
2022-08-06T18:30:30.188Z,19.00
2022-08-06T18:35:55.425Z,18.66
2022-08-06T18:41:05.716Z,18.29
2022-08-06T18:46:16.984Z,17.96
2022-08-06T18:51:40.979Z,17.64
2022-08-06T18:56:48.836Z,17.40
2022-08-06T19:01:52.078Z,17.10
2022-08-06T19:06:54.031Z,16.77
2022-08-06T19:11:57.760Z,16.37
2022-08-06T19:17:07.936Z,16.06
2022-08-06T19:22:10.517Z,15.82
2022-08-06T19:28:07.285Z,15.65
2022-08-06T19:32:49.281Z,15.52
2022-08-06T19:37:59.498Z,15.55
2022-08-06T19:44:25.673Z,15.59
2022-08-06T19:48:29.124Z,15.63
2022-08-06T19:53:32.757Z,15.58
2022-08-06T19:58:35.135Z,15.44
2022-08-06T20:03:39.836Z,15.25
2022-08-06T20:08:42.461Z,15.11
2022-08-06T20:13:44.357Z,15.14
2022-08-06T20:18:47.252Z,14.81
2022-08-06T20:23:53.356Z,14.29
2022-08-06T20:29:20.410Z,14.12
2022-08-06T20:34:29.076Z,14.03
2022-08-06T20:39:32.160Z,14.26
2022-08-06T20:44:36.416Z,14.21
2022-08-06T20:50:03.337Z,13.97
2022-08-06T20:55:01.916Z,13.74
2022-08-06T21:00:28.475Z,13.58
2022-08-06T21:05:38.069Z,13.36
2022-08-06T21:10:49.738Z,13.28
2022-08-06T21:16:05.503Z,13.47
2022-08-06T21:21:17.110Z,13.73
2022-08-06T21:26:25.264Z,14.14
2022-08-06T21:31:31.924Z,14.39
2022-08-06T21:36:34.322Z,14.38
2022-08-06T21:41:55.016Z,14.31
2022-08-06T21:47:00.163Z,14.31
2022-08-06T21:52:03.104Z,14.47
2022-08-06T21:57:12.139Z,14.55
2022-08-06T22:02:26.645Z,14.79
2022-08-06T22:08:06.611Z,15.00
2022-08-06T22:13:11.848Z,15.08
2022-08-06T22:18:18.945Z,15.11
2022-08-06T22:23:32.994Z,15.17
2022-08-06T22:28:41.195Z,15.31
2022-08-06T22:33:59.010Z,15.34
2022-08-06T22:39:07.399Z,15.31
2022-08-06T22:44:14.755Z,15.22
2022-08-06T22:49:36.917Z,15.18
2022-08-06T22:54:58.405Z,15.10
2022-08-06T23:00:10.956Z,15.04
2022-08-06T23:05:20.172Z,14.91
2022-08-06T23:10:22.009Z,14.89
2022-08-06T23:15:39.407Z,14.94
2022-08-06T23:20:47.182Z,14.92
2022-08-06T23:26:00.167Z,14.87
2022-08-06T23:31:05.841Z,14.73
2022-08-06T23:36:08.045Z,14.65
2022-08-06T23:41:16.403Z,14.64
2022-08-06T23:46:28.090Z,14.64
2022-08-06T23:52:01.111Z,14.62
2022-08-06T23:56:57.654Z,14.56
